WJA589 CYOW-CYYZ
Flight info
| Callsign | WJA589 |
|---|---|
| Flight time | 0h 44m |
| Altitude | 24000 |
| Route | TUKIR IMEBA9 |
| Aircraft | B738/M-SDE2E3FGHIRWXY/LB1 |
Departure
| Time | 2026-05-04 23:09 |
|---|---|
| Airport | Ottawa Macdonald-Cartier International Airport (CYOW) |
Arrival
| Time | 2026-05-04 23:53 |
|---|---|
| Airport | Toronto Pearson International Airport (CYYZ) |
| Time | Latitude | Longitude | Altitude | Speed | Heading |
|---|---|---|---|---|---|
| 2026-05-04 22:57 | 45.32025 | -75.66544 | 390 ft | 0 kts | 36° |
| 2026-05-04 23:00 | 45.32021 | -75.66548 | 390 ft | 2 kts | 36° |
| 2026-05-04 23:01 | 45.32005 | -75.66565 | 389 ft | 3 kts | 38° |
| 2026-05-04 23:01 | 45.31989 | -75.66583 | 389 ft | 3 kts | 42° |
| 2026-05-04 23:01 | 45.31975 | -75.66603 | 389 ft | 3 kts | 55° |
| 2026-05-04 23:01 | 45.31966 | -75.66626 | 389 ft | 3 kts | 91° |
| 2026-05-04 23:02 | 45.31968 | -75.66640 | 389 ft | 1 kts | 126° |
| 2026-05-04 23:02 | 45.31968 | -75.66641 | 389 ft | 1 kts | 126° |
| 2026-05-04 23:04 | 45.31959 | -75.66624 | 389 ft | 5 kts | 126° |
| 2026-05-04 23:04 | 45.31893 | -75.66494 | 387 ft | 19 kts | 122° |
| 2026-05-04 23:04 | 45.31889 | -75.66396 | 386 ft | 15 kts | 65° |
| 2026-05-04 23:05 | 45.31947 | -75.66262 | 386 ft | 17 kts | 57° |
| 2026-05-04 23:05 | 45.32015 | -75.66108 | 383 ft | 19 kts | 58° |
| 2026-05-04 23:05 | 45.32084 | -75.65956 | 383 ft | 18 kts | 57° |
| 2026-05-04 23:05 | 45.32151 | -75.65808 | 382 ft | 17 kts | 57° |
| 2026-05-04 23:06 | 45.32215 | -75.65667 | 384 ft | 17 kts | 57° |
| 2026-05-04 23:06 | 45.32303 | -75.65470 | 384 ft | 27 kts | 58° |
| 2026-05-04 23:06 | 45.32400 | -75.65255 | 382 ft | 25 kts | 56° |
| 2026-05-04 23:06 | 45.32492 | -75.65055 | 380 ft | 23 kts | 57° |
| 2026-05-04 23:07 | 45.32578 | -75.64867 | 377 ft | 21 kts | 58° |
| 2026-05-04 23:07 | 45.32588 | -75.64700 | 378 ft | 11 kts | 100° |
| 2026-05-04 23:07 | 45.32574 | -75.64626 | 378 ft | 5 kts | 111° |
| 2026-05-04 23:07 | 45.32573 | -75.64623 | 378 ft | 0 kts | 111° |
| 2026-05-04 23:08 | 45.32546 | -75.64565 | 377 ft | 14 kts | 136° |
| 2026-05-04 23:09 | 45.32480 | -75.64576 | 379 ft | 12 kts | 232° |
| 2026-05-04 23:09 | 45.32323 | -75.64919 | 381 ft | 81 kts | 237° |
| 2026-05-04 23:09 | 45.31876 | -75.65907 | 400 ft | 152 kts | 233° |
| 2026-05-04 23:09 | 45.31344 | -75.67180 | 1421 ft | 141 kts | 234° |
| 2026-05-04 23:10 | 45.30843 | -75.68234 | 2667 ft | 124 kts | 233° |
| 2026-05-04 23:10 | 45.30302 | -75.69332 | 3251 ft | 150 kts | 233° |
| 2026-05-04 23:10 | 45.29699 | -75.70600 | 4112 ft | 152 kts | 237° |
| 2026-05-04 23:10 | 45.29180 | -75.71780 | 5369 ft | 132 kts | 238° |
| 2026-05-04 23:11 | 45.28709 | -75.72929 | 6123 ft | 143 kts | 245° |
| 2026-05-04 23:11 | 45.28287 | -75.74317 | 6695 ft | 159 kts | 251° |
| 2026-05-04 23:11 | 45.28095 | -75.75842 | 7604 ft | 156 kts | 264° |
| 2026-05-04 23:11 | 45.28019 | -75.77400 | 8408 ft | 164 kts | 265° |
| 2026-05-04 23:12 | 45.27940 | -75.79057 | 9083 ft | 171 kts | 265° |
| 2026-05-04 23:12 | 45.27861 | -75.80777 | 9594 ft | 186 kts | 266° |
| 2026-05-04 23:12 | 45.27761 | -75.82735 | 9951 ft | 205 kts | 265° |
| 2026-05-04 23:12 | 45.27636 | -75.84772 | 10492 ft | 213 kts | 264° |
| 2026-05-04 23:13 | 45.27492 | -75.86881 | 11220 ft | 215 kts | 265° |
| 2026-05-04 23:13 | 45.27369 | -75.89060 | 11634 ft | 229 kts | 265° |
| 2026-05-04 23:13 | 45.27241 | -75.91367 | 12162 ft | 239 kts | 265° |
| 2026-05-04 23:13 | 45.27103 | -75.93776 | 12685 ft | 250 kts | 265° |
| 2026-05-04 23:14 | 45.26955 | -75.96285 | 13214 ft | 261 kts | 265° |
| 2026-05-04 23:14 | 45.26796 | -75.98908 | 13715 ft | 272 kts | 265° |
| 2026-05-04 23:14 | 45.26636 | -76.01505 | 14169 ft | 282 kts | 265° |
| 2026-05-04 23:14 | 45.26459 | -76.04329 | 14650 ft | 292 kts | 265° |
| 2026-05-04 23:15 | 45.26275 | -76.07242 | 15132 ft | 301 kts | 264° |
| 2026-05-04 23:15 | 45.26083 | -76.10248 | 15615 ft | 310 kts | 264° |
| 2026-05-04 23:15 | 45.25885 | -76.13343 | 16119 ft | 319 kts | 264° |
| 2026-05-04 23:15 | 45.25681 | -76.16511 | 16615 ft | 327 kts | 264° |
| 2026-05-04 23:16 | 45.25470 | -76.19761 | 17129 ft | 334 kts | 264° |
| 2026-05-04 23:16 | 45.25239 | -76.23075 | 17655 ft | 341 kts | 262° |
| 2026-05-04 23:16 | 45.24576 | -76.26332 | 18135 ft | 348 kts | 249° |
| 2026-05-04 23:16 | 45.23616 | -76.29512 | 18596 ft | 354 kts | 249° |
| 2026-05-04 23:17 | 45.22631 | -76.32731 | 19052 ft | 358 kts | 249° |
| 2026-05-04 23:17 | 45.21633 | -76.35996 | 19512 ft | 363 kts | 249° |
| 2026-05-04 23:17 | 45.20626 | -76.39302 | 19989 ft | 367 kts | 249° |
| 2026-05-04 23:17 | 45.19614 | -76.42641 | 20484 ft | 371 kts | 249° |
| 2026-05-04 23:18 | 45.18595 | -76.46015 | 20975 ft | 374 kts | 249° |
| 2026-05-04 23:18 | 45.17570 | -76.49413 | 21471 ft | 376 kts | 249° |
| 2026-05-04 23:18 | 45.16539 | -76.52834 | 21946 ft | 379 kts | 250° |
| 2026-05-04 23:18 | 45.15501 | -76.56276 | 22460 ft | 381 kts | 250° |
| 2026-05-04 23:19 | 45.14459 | -76.59731 | 22977 ft | 382 kts | 250° |
| 2026-05-04 23:19 | 45.13411 | -76.63202 | 23460 ft | 384 kts | 250° |
| 2026-05-04 23:19 | 45.12351 | -76.66708 | 23620 ft | 392 kts | 250° |
| 2026-05-04 23:19 | 45.11269 | -76.70288 | 23653 ft | 399 kts | 250° |
| 2026-05-04 23:20 | 45.10173 | -76.73905 | 23648 ft | 399 kts | 250° |
| 2026-05-04 23:20 | 45.09077 | -76.77507 | 23642 ft | 395 kts | 250° |
| 2026-05-04 23:20 | 45.07995 | -76.81061 | 23662 ft | 394 kts | 250° |
| 2026-05-04 23:20 | 45.06907 | -76.84629 | 23667 ft | 396 kts | 250° |
| 2026-05-04 23:21 | 45.05818 | -76.88203 | 23658 ft | 397 kts | 250° |
| 2026-05-04 23:21 | 45.04737 | -76.91742 | 23658 ft | 397 kts | 250° |
| 2026-05-04 23:21 | 45.03641 | -76.95328 | 23658 ft | 397 kts | 250° |
| 2026-05-04 23:21 | 45.02542 | -76.98916 | 23651 ft | 398 kts | 250° |
| 2026-05-04 23:22 | 45.01486 | -77.02360 | 23659 ft | 397 kts | 250° |
| 2026-05-04 23:22 | 45.00386 | -77.05939 | 23657 ft | 397 kts | 250° |
| 2026-05-04 23:22 | 44.99287 | -77.09515 | 23657 ft | 396 kts | 250° |
| 2026-05-04 23:22 | 44.98188 | -77.13081 | 23659 ft | 396 kts | 250° |
| 2026-05-04 23:23 | 44.97090 | -77.16643 | 23658 ft | 396 kts | 250° |
| 2026-05-04 23:23 | 44.95991 | -77.20202 | 23661 ft | 395 kts | 250° |
| 2026-05-04 23:23 | 44.94890 | -77.23765 | 23655 ft | 395 kts | 250° |
| 2026-05-04 23:23 | 44.93791 | -77.27312 | 23655 ft | 395 kts | 250° |
| 2026-05-04 23:24 | 44.92690 | -77.30866 | 23657 ft | 395 kts | 250° |
| 2026-05-04 23:24 | 44.91588 | -77.34413 | 23660 ft | 395 kts | 250° |
| 2026-05-04 23:24 | 44.90488 | -77.37952 | 23665 ft | 394 kts | 250° |
| 2026-05-04 23:24 | 44.89384 | -77.41498 | 23665 ft | 394 kts | 250° |
| 2026-05-04 23:25 | 44.88279 | -77.45041 | 23642 ft | 394 kts | 250° |
| 2026-05-04 23:25 | 44.87176 | -77.48575 | 23650 ft | 394 kts | 250° |
| 2026-05-04 23:25 | 44.86072 | -77.52106 | 23651 ft | 393 kts | 250° |
| 2026-05-04 23:25 | 44.84968 | -77.55633 | 23653 ft | 393 kts | 250° |
| 2026-05-04 23:26 | 44.83863 | -77.59156 | 23654 ft | 393 kts | 250° |
| 2026-05-04 23:26 | 44.82754 | -77.62694 | 23662 ft | 399 kts | 250° |
| 2026-05-04 23:26 | 44.81619 | -77.66311 | 23661 ft | 408 kts | 250° |
| 2026-05-04 23:26 | 44.80461 | -77.69995 | 23662 ft | 414 kts | 249° |
| 2026-05-04 23:27 | 44.79293 | -77.73698 | 23649 ft | 414 kts | 249° |
| 2026-05-04 23:27 | 44.78125 | -77.77396 | 23643 ft | 412 kts | 249° |
| 2026-05-04 23:27 | 44.76960 | -77.81077 | 23541 ft | 411 kts | 249° |
| 2026-05-04 23:27 | 44.75775 | -77.84718 | 23019 ft | 406 kts | 246° |
| 2026-05-04 23:28 | 44.74419 | -77.88166 | 22506 ft | 399 kts | 243° |
| 2026-05-04 23:28 | 44.73024 | -77.91498 | 21983 ft | 392 kts | 243° |
| 2026-05-04 23:28 | 44.71642 | -77.94757 | 21483 ft | 385 kts | 243° |
| 2026-05-04 23:28 | 44.70287 | -77.97968 | 20977 ft | 379 kts | 243° |
| 2026-05-04 23:29 | 44.69012 | -78.01010 | 20529 ft | 373 kts | 243° |
| 2026-05-04 23:29 | 44.67712 | -78.04130 | 20073 ft | 367 kts | 243° |
| 2026-05-04 23:29 | 44.66437 | -78.07199 | 19627 ft | 361 kts | 243° |
| 2026-05-04 23:29 | 44.65181 | -78.10225 | 19185 ft | 356 kts | 243° |
| 2026-05-04 23:30 | 44.63959 | -78.13170 | 18759 ft | 352 kts | 242° |
| 2026-05-04 23:30 | 44.62734 | -78.16119 | 18326 ft | 348 kts | 242° |
| 2026-05-04 23:30 | 44.61522 | -78.19033 | 17898 ft | 344 kts | 242° |
| 2026-05-04 23:30 | 44.60323 | -78.21915 | 17415 ft | 340 kts | 242° |
| 2026-05-04 23:31 | 44.59136 | -78.24763 | 16930 ft | 337 kts | 242° |
| 2026-05-04 23:31 | 44.57956 | -78.27587 | 16439 ft | 334 kts | 242° |
| 2026-05-04 23:31 | 44.56785 | -78.30389 | 15978 ft | 331 kts | 242° |
| 2026-05-04 23:31 | 44.55624 | -78.33157 | 15518 ft | 328 kts | 241° |
| 2026-05-04 23:32 | 44.54470 | -78.35906 | 15092 ft | 325 kts | 241° |
| 2026-05-04 23:32 | 44.53329 | -78.38621 | 14724 ft | 321 kts | 241° |
| 2026-05-04 23:32 | 44.52204 | -78.41297 | 14356 ft | 317 kts | 241° |
| 2026-05-04 23:32 | 44.51091 | -78.43943 | 13994 ft | 314 kts | 241° |
| 2026-05-04 23:33 | 44.49989 | -78.46561 | 13638 ft | 310 kts | 241° |
| 2026-05-04 23:33 | 44.48897 | -78.49153 | 13260 ft | 307 kts | 241° |
| 2026-05-04 23:33 | 44.47813 | -78.51724 | 12861 ft | 305 kts | 241° |
| 2026-05-04 23:33 | 44.46741 | -78.54264 | 12467 ft | 302 kts | 241° |
| 2026-05-04 23:34 | 44.45676 | -78.56785 | 12078 ft | 300 kts | 240° |
| 2026-05-04 23:34 | 44.44619 | -78.59288 | 11686 ft | 298 kts | 240° |
| 2026-05-04 23:34 | 44.43567 | -78.61773 | 11308 ft | 296 kts | 240° |
| 2026-05-04 23:34 | 44.42523 | -78.64238 | 10923 ft | 294 kts | 240° |
| 2026-05-04 23:35 | 44.41486 | -78.66686 | 10542 ft | 292 kts | 240° |
| 2026-05-04 23:35 | 44.40452 | -78.69123 | 10188 ft | 290 kts | 240° |
| 2026-05-04 23:35 | 44.39425 | -78.71542 | 9828 ft | 288 kts | 240° |
| 2026-05-04 23:35 | 44.38404 | -78.73945 | 9464 ft | 287 kts | 240° |
| 2026-05-04 23:36 | 44.37388 | -78.76335 | 9062 ft | 285 kts | 240° |
| 2026-05-04 23:36 | 44.36390 | -78.78681 | 8683 ft | 284 kts | 240° |
| 2026-05-04 23:36 | 44.35381 | -78.81048 | 8299 ft | 283 kts | 240° |
| 2026-05-04 23:36 | 44.34376 | -78.83406 | 7912 ft | 281 kts | 240° |
| 2026-05-04 23:37 | 44.33397 | -78.85700 | 7883 ft | 268 kts | 240° |
| 2026-05-04 23:37 | 44.32465 | -78.87882 | 7876 ft | 255 kts | 240° |
| 2026-05-04 23:37 | 44.31578 | -78.89956 | 7876 ft | 242 kts | 240° |
| 2026-05-04 23:37 | 44.30738 | -78.91923 | 7877 ft | 230 kts | 240° |
| 2026-05-04 23:38 | 44.29735 | -78.93578 | 7857 ft | 222 kts | 220° |
| 2026-05-04 23:38 | 44.28468 | -78.94840 | 7604 ft | 226 kts | 219° |
| 2026-05-04 23:38 | 44.27184 | -78.96101 | 7357 ft | 225 kts | 219° |
| 2026-05-04 23:38 | 44.25906 | -78.97362 | 7113 ft | 224 kts | 219° |
| 2026-05-04 23:39 | 44.24636 | -78.98622 | 6860 ft | 223 kts | 219° |
| 2026-05-04 23:39 | 44.23376 | -78.99878 | 6624 ft | 222 kts | 219° |
| 2026-05-04 23:39 | 44.22173 | -79.01082 | 6394 ft | 222 kts | 219° |
| 2026-05-04 23:39 | 44.20922 | -79.02337 | 6150 ft | 221 kts | 219° |
| 2026-05-04 23:40 | 44.19686 | -79.03578 | 6031 ft | 216 kts | 219° |
| 2026-05-04 23:40 | 44.18470 | -79.04800 | 5990 ft | 215 kts | 219° |
| 2026-05-04 23:40 | 44.17261 | -79.06017 | 6017 ft | 214 kts | 219° |
| 2026-05-04 23:40 | 44.16051 | -79.07237 | 5994 ft | 215 kts | 219° |
| 2026-05-04 23:41 | 44.14843 | -79.08453 | 5996 ft | 214 kts | 219° |
| 2026-05-04 23:41 | 44.13635 | -79.09670 | 5988 ft | 215 kts | 219° |
| 2026-05-04 23:41 | 44.12417 | -79.10898 | 5848 ft | 218 kts | 219° |
| 2026-05-04 23:41 | 44.11192 | -79.12131 | 5729 ft | 216 kts | 219° |
| 2026-05-04 23:42 | 44.09988 | -79.13343 | 5558 ft | 212 kts | 219° |
| 2026-05-04 23:42 | 44.08805 | -79.14532 | 5393 ft | 209 kts | 218° |
| 2026-05-04 23:42 | 44.07636 | -79.15708 | 5243 ft | 207 kts | 219° |
| 2026-05-04 23:42 | 44.06469 | -79.16881 | 5098 ft | 208 kts | 219° |
| 2026-05-04 23:43 | 44.05294 | -79.18061 | 5024 ft | 207 kts | 219° |
| 2026-05-04 23:43 | 44.04133 | -79.19228 | 4998 ft | 205 kts | 219° |
| 2026-05-04 23:43 | 44.02986 | -79.20381 | 4996 ft | 207 kts | 219° |
| 2026-05-04 23:43 | 44.01812 | -79.21559 | 4998 ft | 208 kts | 219° |
| 2026-05-04 23:44 | 44.00625 | -79.22749 | 4986 ft | 207 kts | 219° |
| 2026-05-04 23:44 | 43.99462 | -79.23914 | 4980 ft | 207 kts | 219° |
| 2026-05-04 23:44 | 43.98297 | -79.25082 | 4993 ft | 206 kts | 219° |
| 2026-05-04 23:44 | 43.97150 | -79.26231 | 4989 ft | 206 kts | 219° |
| 2026-05-04 23:45 | 43.95992 | -79.27392 | 4994 ft | 206 kts | 219° |
| 2026-05-04 23:45 | 43.94831 | -79.28553 | 4983 ft | 205 kts | 218° |
| 2026-05-04 23:45 | 43.93680 | -79.29703 | 5000 ft | 203 kts | 219° |
| 2026-05-04 23:45 | 43.92537 | -79.30845 | 4994 ft | 203 kts | 219° |
| 2026-05-04 23:46 | 43.91392 | -79.31988 | 4984 ft | 202 kts | 219° |
| 2026-05-04 23:46 | 43.90281 | -79.33124 | 4993 ft | 195 kts | 223° |
| 2026-05-04 23:46 | 43.89325 | -79.34432 | 4997 ft | 193 kts | 229° |
| 2026-05-04 23:46 | 43.88412 | -79.35782 | 4988 ft | 188 kts | 229° |
| 2026-05-04 23:47 | 43.87539 | -79.37072 | 4982 ft | 180 kts | 229° |
| 2026-05-04 23:47 | 43.86693 | -79.38319 | 4975 ft | 174 kts | 229° |
| 2026-05-04 23:47 | 43.85871 | -79.39524 | 4979 ft | 170 kts | 229° |
| 2026-05-04 23:47 | 43.85051 | -79.40724 | 4853 ft | 170 kts | 229° |
| 2026-05-04 23:48 | 43.84246 | -79.41900 | 4730 ft | 168 kts | 229° |
| 2026-05-04 23:48 | 43.83440 | -79.43074 | 4599 ft | 170 kts | 228° |
| 2026-05-04 23:48 | 43.82621 | -79.44264 | 4484 ft | 172 kts | 227° |
| 2026-05-04 23:48 | 43.81792 | -79.45468 | 4235 ft | 175 kts | 227° |
| 2026-05-04 23:49 | 43.80954 | -79.46687 | 3885 ft | 173 kts | 227° |
| 2026-05-04 23:49 | 43.80139 | -79.47873 | 3618 ft | 165 kts | 226° |
| 2026-05-04 23:49 | 43.79347 | -79.49031 | 3204 ft | 168 kts | 225° |
| 2026-05-04 23:49 | 43.78816 | -79.49807 | 3124 ft | 165 kts | 226° |
| 2026-05-04 23:50 | 43.77822 | -79.51258 | 3005 ft | 149 kts | 225° |
| 2026-05-04 23:50 | 43.77353 | -79.51942 | 3021 ft | 147 kts | 225° |
| 2026-05-04 23:50 | 43.76651 | -79.52964 | 2748 ft | 148 kts | 224° |
| 2026-05-04 23:50 | 43.75946 | -79.53993 | 2453 ft | 147 kts | 224° |
| 2026-05-04 23:51 | 43.75247 | -79.55012 | 2210 ft | 146 kts | 224° |
| 2026-05-04 23:51 | 43.74303 | -79.56339 | 2164 ft | 140 kts | 224° |
| 2026-05-04 23:51 | 43.73840 | -79.56969 | 1963 ft | 140 kts | 225° |
| 2026-05-04 23:51 | 43.73173 | -79.57917 | 1688 ft | 135 kts | 225° |
| 2026-05-04 23:52 | 43.72512 | -79.58881 | 1512 ft | 146 kts | 228° |
| 2026-05-04 23:52 | 43.71801 | -79.60001 | 1311 ft | 159 kts | 227° |
| 2026-05-04 23:52 | 43.71056 | -79.61191 | 1067 ft | 171 kts | 226° |
| 2026-05-04 23:52 | 43.70237 | -79.62358 | 838 ft | 160 kts | 221° |
| 2026-05-04 23:53 | 43.69496 | -79.63395 | 647 ft | 142 kts | 225° |
| 2026-05-04 23:53 | 43.68866 | -79.64299 | 567 ft | 116 kts | 226° |
| 2026-05-04 23:53 | 43.68456 | -79.64881 | 575 ft | 53 kts | 225° |
| 2026-05-04 23:53 | 43.68263 | -79.65073 | 577 ft | 31 kts | 194° |
| 2026-05-04 23:54 | 43.68117 | -79.65066 | 575 ft | 17 kts | 126° |
| 2026-05-04 23:54 | 43.68152 | -79.64929 | 578 ft | 18 kts | 43° |
| 2026-05-04 23:54 | 43.68244 | -79.64799 | 578 ft | 19 kts | 46° |
| 2026-05-04 23:54 | 43.68337 | -79.64661 | 577 ft | 24 kts | 47° |
| 2026-05-04 23:55 | 43.68477 | -79.64459 | 571 ft | 32 kts | 46° |
| 2026-05-04 23:55 | 43.68632 | -79.64232 | 575 ft | 31 kts | 46° |
| 2026-05-04 23:55 | 43.68829 | -79.63948 | 579 ft | 7 kts | 46° |
| 2026-05-04 23:56 | 43.68889 | -79.63861 | 576 ft | 19 kts | 45° |
| 2026-05-04 23:56 | 43.68980 | -79.63728 | 573 ft | 19 kts | 47° |
| 2026-05-04 23:56 | 43.69000 | -79.63568 | 572 ft | 19 kts | 135° |
| 2026-05-04 23:56 | 43.68901 | -79.63448 | 569 ft | 19 kts | 136° |
| 2026-05-04 23:57 | 43.68804 | -79.63320 | 565 ft | 23 kts | 136° |
| 2026-05-04 23:57 | 43.68679 | -79.63155 | 566 ft | 26 kts | 136° |
| 2026-05-04 23:57 | 43.68552 | -79.62987 | 567 ft | 23 kts | 137° |
| 2026-05-04 23:57 | 43.68436 | -79.62837 | 566 ft | 22 kts | 136° |
| 2026-05-04 23:58 | 43.68325 | -79.62690 | 569 ft | 22 kts | 136° |
| 2026-05-04 23:58 | 43.68224 | -79.62551 | 574 ft | 18 kts | 118° |
| 2026-05-04 23:58 | 43.68264 | -79.62424 | 569 ft | 14 kts | 49° |
| 2026-05-04 23:58 | 43.68285 | -79.62379 | 564 ft | 7 kts | 71° |
| 2026-05-04 23:59 | 43.68260 | -79.62295 | 564 ft | 14 kts | 137° |
| 2026-05-04 23:59 | 43.68181 | -79.62208 | 563 ft | 15 kts | 140° |
| 2026-05-04 23:59 | 43.68108 | -79.62113 | 563 ft | 14 kts | 134° |
| 2026-05-04 23:59 | 43.68072 | -79.62001 | 568 ft | 12 kts | 71° |
| 2026-05-05 00:00 | 43.68126 | -79.61959 | 566 ft | 8 kts | 350° |
| 2026-05-05 00:00 | 43.68158 | -79.61971 | 565 ft | 6 kts | 343° |
| 2026-05-05 00:00 | 43.68169 | -79.61976 | 568 ft | 0 kts | 343° |